Time;durP1;ratioP1;P1;durP2;ratioP2;P2;SDS_P1;SDS_P2;PMS_P1;PMS_P2;Temp;Humidity;BMP_temperature;BMP_pressure;BME280_temperature;BME280_humidity;BME280_pressure;Samples;Min_cycle;Max_cycle;Signal;HPM_P1;HPM_P2
2023/12/27 00:00:50;;;;;;;1.80;0.80;;;;;;;7.59;100.00;148066.97;4939220;28;20239;-54
2023/12/27 00:03:16;;;;;;;2.80;0.70;;;;;;;7.53;100.00;148053.31;4943281;28;20230;-55
2023/12/27 00:05:43;;;;;;;2.37;0.80;;;;;;;7.47;100.00;148038.41;4940178;28;20240;-56
2023/12/27 00:08:10;;;;;;;1.67;0.73;;;;;;;7.36;100.00;148013.53;4942416;28;20231;-56
2023/12/27 00:10:37;;;;;;;2.10;1.27;;;;;;;7.34;100.00;148008.56;4940959;28;20272;-53
2023/12/27 00:13:04;;;;;;;3.00;0.70;;;;;;;7.27;100.00;147991.16;4944528;28;20235;-57
2023/12/27 00:15:31;;;;;;;1.73;0.63;;;;;;;7.23;100.00;147982.50;4942059;28;20227;-53
2023/12/27 00:17:57;;;;;;;1.77;0.53;;;;;;;7.23;100.00;147982.50;4943851;28;20241;-55
2023/12/27 00:20:24;;;;;;;1.47;0.50;;;;;;;7.19;100.00;147971.28;4940248;28;20691;-57
2023/12/27 00:22:51;;;;;;;2.10;0.87;;;;;;;7.19;100.00;147972.53;4942939;28;20290;-51
2023/12/27 00:25:17;;;;;;;2.83;0.73;;;;;;;7.22;100.00;147978.75;4945340;28;20238;-55
2023/12/27 00:27:45;;;;;;;2.53;0.70;;;;;;;7.23;100.00;147981.22;4941690;28;20645;-54
2023/12/27 00:30:12;;;;;;;3.43;0.80;;;;;;;7.24;100.00;147984.97;4942681;28;20240;-55
2023/12/27 00:32:39;;;;;;;2.93;0.73;;;;;;;7.25;100.00;147986.19;4940578;28;20232;-54
2023/12/27 00:35:06;;;;;;;2.60;0.80;;;;;;;7.24;100.00;147983.72;4940097;28;20716;-52
2023/12/27 00:37:33;;;;;;;3.47;0.70;;;;;;;7.26;100.00;147987.47;4935775;28;20542;-55
2023/12/27 00:40:00;;;;;;;3.83;0.70;;;;;;;7.29;100.00;147996.13;4940108;28;20737;-53
2023/12/27 00:42:26;;;;;;;2.70;1.10;;;;;;;7.31;100.00;148001.09;4926437;28;20232;-51
2023/12/27 00:44:54;;;;;;;2.40;0.80;;;;;;;7.35;100.00;148011.06;4930281;28;20593;-53
2023/12/27 00:47:21;;;;;;;3.00;0.90;;;;;;;7.35;100.00;148009.81;4938866;28;20325;-56
2023/12/27 00:49:48;;;;;;;4.20;0.70;;;;;;;7.38;100.00;148017.28;4931848;28;20694;-52
2023/12/27 00:52:15;;;;;;;2.63;0.80;;;;;;;7.37;100.00;148014.81;4943734;28;20908;-53
2023/12/27 00:54:43;;;;;;;1.23;0.70;;;;;;;7.37;100.00;148016.03;4938303;28;20243;-54
2023/12/27 00:57:10;;;;;;;1.47;0.70;;;;;;;7.38;100.00;148017.28;4955059;28;20698;-53
2023/12/27 00:59:37;;;;;;;1.70;0.70;;;;;;;7.38;100.00;148018.50;4938927;28;20264;-55
2023/12/27 01:02:06;;;;;;;3.83;0.90;;;;;;;7.35;100.00;148009.81;4940599;28;20237;-54
2023/12/27 01:04:34;;;;;;;5.07;0.80;;;;;;;7.32;100.00;148003.59;4938324;28;20231;-54
2023/12/27 01:07:00;;;;;;;2.43;0.80;;;;;;;7.30;100.00;147998.63;4942738;28;20247;-52
2023/12/27 01:09:27;;;;;;;2.77;0.87;;;;;;;7.29;100.00;147996.13;4938919;28;20215;-54
2023/12/27 01:11:53;;;;;;;3.13;1.30;;;;;;;7.28;100.00;147993.66;4940486;28;20253;-55
2023/12/27 01:14:20;;;;;;;2.87;0.90;;;;;;;7.28;100.00;147993.66;4954885;28;20227;-54
2023/12/27 01:16:47;;;;;;;1.60;0.60;;;;;;;7.31;100.00;147999.88;4940122;28;20707;-52
2023/12/27 01:19:15;;;;;;;2.07;1.10;;;;;;;7.30;100.00;147997.41;4935118;28;20236;-55
2023/12/27 01:21:41;;;;;;;2.73;0.83;;;;;;;7.31;100.00;147999.88;4938703;28;20234;-52
2023/12/27 01:24:08;;;;;;;3.23;1.60;;;;;;;7.30;100.00;147997.41;4930605;28;20723;-52
2023/12/27 01:26:35;;;;;;;4.47;1.83;;;;;;;7.27;100.00;147989.94;4939121;28;20226;-53
2023/12/27 01:29:01;;;;;;;3.33;1.20;;;;;;;7.28;100.00;147993.66;4938989;28;20236;-54
2023/12/27 01:31:28;;;;;;;2.57;1.10;;;;;;;7.31;100.00;147999.88;4928371;28;20263;-54
2023/12/27 01:33:54;;;;;;;5.00;1.50;;;;;;;7.32;100.00;148003.59;4942285;28;20252;-56
2023/12/27 01:36:23;;;;;;;2.93;1.00;;;;;;;7.30;100.00;147998.63;4928910;28;20586;-54
2023/12/27 01:38:49;;;;;;;3.23;1.40;;;;;;;7.30;100.00;147998.63;4937808;28;20273;-53
2023/12/27 01:41:16;;;;;;;3.33;1.17;;;;;;;7.30;100.00;147998.63;4941131;28;20283;-53
2023/12/27 01:43:43;;;;;;;3.37;1.43;;;;;;;7.30;100.00;147997.41;4936301;28;20735;-55
2023/12/27 01:46:10;;;;;;;2.93;1.10;;;;;;;7.28;100.00;147993.66;4941727;28;20241;-52
2023/12/27 01:48:37;;;;;;;4.50;1.20;;;;;;;7.28;100.00;147993.66;4954459;28;20244;-52
2023/12/27 01:51:04;;;;;;;11.23;1.50;;;;;;;7.27;100.00;147991.16;4941385;28;20244;-55
2023/12/27 01:53:32;;;;;;;3.37;1.17;;;;;;;7.25;100.00;147986.19;4922856;28;20227;-56
2023/12/27 01:56:00;;;;;;;5.67;1.23;;;;;;;7.24;100.00;147983.72;4929606;28;20239;-55
2023/12/27 01:58:27;;;;;;;4.20;1.20;;;;;;;7.24;100.00;147983.72;4924333;28;20220;-53
2023/12/27 02:00:56;;;;;;;5.23;1.40;;;;;;;7.24;100.00;147983.72;4940597;28;20238;-54
2023/12/27 02:03:23;;;;;;;3.57;1.10;;;;;;;7.27;100.00;147989.94;4926266;28;20212;-56
2023/12/27 02:05:51;;;;;;;3.80;1.20;;;;;;;7.29;100.00;147994.91;4940013;28;20235;-56
2023/12/27 02:08:19;;;;;;;4.97;1.23;;;;;;;7.25;100.00;147986.19;4940748;28;20239;-52
2023/12/27 02:10:49;;;;;;;3.70;1.20;;;;;;;7.23;100.00;147981.22;4926975;28;20292;-52
2023/12/27 02:13:15;;;;;;;3.43;1.30;;;;;;;7.26;100.00;147987.47;4935749;28;20232;-52
2023/12/27 02:15:42;;;;;;;3.37;1.40;;;;;;;7.22;100.00;147978.75;4920385;28;20600;-53
2023/12/27 02:18:11;;;;;;;3.40;1.17;;;;;;;7.26;100.00;147988.69;4939808;28;20240;-55
2023/12/27 02:20:38;;;;;;;3.50;1.40;;;;;;;7.22;100.00;147980.00;4927507;28;20581;-53
2023/12/27 02:23:08;;;;;;;2.50;1.30;;;;;;;7.23;100.00;147981.22;4937816;28;20239;-53
2023/12/27 02:25:36;;;;;;;6.30;1.60;;;;;;;7.22;100.00;147980.00;4937321;28;20244;-56
2023/12/27 02:28:05;;;;;;;2.30;1.27;;;;;;;7.21;100.00;147976.25;4939720;28;20293;-56
2023/12/27 02:30:36;;;;;;;3.30;1.30;;;;;;;7.19;100.00;147972.53;4923883;28;20243;-54
2023/12/27 02:33:04;;;;;;;2.63;1.30;;;;;;;7.20;100.00;147975.03;4933837;28;20240;-54
2023/12/27 02:35:30;;;;;;;2.70;1.00;;;;;;;7.20;100.00;147973.78;4929122;28;20255;-55
2023/12/27 02:37:57;;;;;;;3.67;1.10;;;;;;;7.20;100.00;147975.03;4929006;28;20769;-54
2023/12/27 02:40:24;;;;;;;3.20;0.90;;;;;;;7.23;100.00;147982.50;4926083;28;20234;-53
2023/12/27 02:42:52;;;;;;;6.03;1.17;;;;;;;7.21;100.00;147977.53;4938512;28;20235;-55
2023/12/27 02:45:18;;;;;;;4.83;1.13;;;;;;;7.17;100.00;147966.31;4955955;28;20252;-53
2023/12/27 02:47:45;;;;;;;4.93;1.80;;;;;;;7.17;100.00;147967.56;4936067;28;20235;-52
2023/12/27 02:50:12;;;;;;;5.03;1.57;;;;;;;7.18;100.00;147970.06;4940370;28;20743;-52
2023/12/27 02:52:38;;;;;;;2.03;1.10;;;;;;;7.16;100.00;147963.81;4921031;28;20718;-52
2023/12/27 02:55:06;;;;;;;6.63;1.20;;;;;;;7.13;100.00;147957.63;4940600;28;20228;-55
2023/12/27 02:57:32;;;;;;;2.47;1.00;;;;;;;7.12;100.00;147955.16;4911399;28;20235;-52
2023/12/27 03:00:00;;;;;;;5.83;1.93;;;;;;;7.12;100.00;147953.88;4933411;28;20235;-52
2023/12/27 03:02:27;;;;;;;3.57;2.03;;;;;;;7.09;100.00;147948.91;4938461;28;20236;-55
2023/12/27 03:04:53;;;;;;;5.23;1.93;;;;;;;7.10;100.00;147950.19;4939413;28;20240;-52
2023/12/27 03:07:20;;;;;;;6.67;2.00;;;;;;;7.08;100.00;147945.22;4938134;28;20235;-55
2023/12/27 03:09:47;;;;;;;4.67;1.93;;;;;;;7.06;100.00;147941.47;4919770;28;20243;-56
2023/12/27 03:12:13;;;;;;;4.50;1.90;;;;;;;7.05;100.00;147938.97;4938323;28;20245;-54
2023/12/27 03:14:40;;;;;;;5.37;2.20;;;;;;;7.03;100.00;147932.78;4931092;28;20232;-53
2023/12/27 03:17:08;;;;;;;4.90;2.03;;;;;;;7.02;100.00;147931.50;4939096;28;20326;-55
2023/12/27 03:19:35;;;;;;;4.80;1.77;;;;;;;6.99;100.00;147922.84;4934171;28;20223;-52
2023/12/27 03:22:01;;;;;;;6.17;1.90;;;;;;;6.94;100.00;147911.63;4928833;28;20254;-54
2023/12/27 03:24:28;;;;;;;7.40;2.17;;;;;;;6.93;100.00;147910.41;4934098;28;20239;-52
2023/12/27 03:26:54;;;;;;;8.30;2.10;;;;;;;6.94;100.00;147912.91;4940338;28;20235;-55
2023/12/27 03:29:21;;;;;;;5.67;1.57;;;;;;;6.93;100.00;147910.41;4938613;28;20211;-55
2023/12/27 03:31:48;;;;;;;4.80;2.00;;;;;;;6.91;100.00;147904.19;4936354;28;20258;-54
2023/12/27 03:34:16;;;;;;;7.67;2.20;;;;;;;6.91;100.00;147904.19;4936801;28;20244;-53
2023/12/27 03:36:42;;;;;;;6.70;2.27;;;;;;;6.91;100.00;147904.19;4954168;28;20727;-53
2023/12/27 03:39:09;;;;;;;5.03;2.13;;;;;;;6.91;100.00;147904.19;4936373;28;20228;-55
2023/12/27 03:41:35;;;;;;;6.83;2.53;;;;;;;6.90;100.00;147902.97;4936509;28;20224;-53
2023/12/27 03:44:03;;;;;;;4.27;2.37;;;;;;;6.91;100.00;147905.44;4927054;28;20719;-54
2023/12/27 03:46:29;;;;;;;12.33;2.67;;;;;;;6.90;100.00;147901.69;4917590;28;20227;-54
2023/12/27 03:48:56;;;;;;;6.47;2.37;;;;;;;6.92;100.00;147906.66;4936740;28;20243;-55
2023/12/27 03:51:24;;;;;;;10.83;2.20;;;;;;;6.93;100.00;147910.41;4951755;28;20228;-56
2023/12/27 03:53:51;;;;;;;8.00;2.30;;;;;;;6.92;100.00;147907.94;4928258;28;20227;-56
2023/12/27 03:56:17;;;;;;;5.57;2.30;;;;;;;6.90;100.00;147902.97;4954374;28;20219;-55
2023/12/27 03:58:44;;;;;;;5.73;2.13;;;;;;;6.90;100.00;147902.97;4923728;28;20238;-56
2023/12/27 04:01:11;;;;;;;5.23;2.40;;;;;;;6.89;100.00;147900.47;4928307;28;20781;-55
2023/12/27 04:03:37;;;;;;;5.97;1.90;;;;;;;6.88;100.00;147896.78;4918363;28;20259;-55
2023/12/27 04:06:04;;;;;;;3.63;1.93;;;;;;;6.87;100.00;147895.50;4928494;28;20235;-54
2023/12/27 04:08:32;;;;;;;8.07;2.00;;;;;;;6.86;100.00;147893.03;4923900;28;20590;-52
2023/12/27 04:10:59;;;;;;;3.60;1.93;;;;;;;6.83;100.00;147885.56;4920474;28;20252;-55
2023/12/27 04:13:25;;;;;;;5.53;2.00;;;;;;;6.81;100.00;147879.38;4924337;28;20219;-53
2023/12/27 04:15:52;;;;;;;5.40;2.10;;;;;;;6.80;100.00;147878.13;4916491;28;20228;-55
2023/12/27 04:18:19;;;;;;;4.53;2.27;;;;;;;6.74;100.00;147864.47;4927797;28;20232;-55
2023/12/27 04:20:45;;;;;;;7.03;2.63;;;;;;;6.72;100.00;147859.50;4922774;28;20719;-55
2023/12/27 04:23:12;;;;;;;4.13;2.00;;;;;;;6.59;100.00;147828.41;4928272;28;20241;-55
2023/12/27 04:25:40;;;;;;;3.80;2.23;;;;;;;6.44;100.00;147791.16;4937063;28;20231;-52
2023/12/27 04:28:08;;;;;;;5.27;1.90;;;;;;;6.25;100.00;147746.50;4927756;28;20257;-54
2023/12/27 04:33:08;;;;;;;6.07;2.00;;;;;;;5.94;100.00;147671.94;4990377;23;20243;-53
2023/12/27 04:35:35;;;;;;;6.70;1.67;;;;;;;5.82;100.00;147642.16;4964576;28;20817;-53
2023/12/27 04:38:02;;;;;;;3.07;1.20;;;;;;;5.70;100.00;147614.84;4967295;28;20233;-53
2023/12/27 04:40:29;;;;;;;5.70;1.20;;;;;;;5.62;100.00;147594.97;4964194;28;20213;-53
2023/12/27 04:42:57;;;;;;;2.43;1.00;;;;;;;5.55;100.00;147577.59;5001811;28;20584;-54
2023/12/27 04:45:23;;;;;;;2.33;0.97;;;;;;;5.51;100.00;147568.94;4984185;28;20228;-54
2023/12/27 04:47:50;;;;;;;2.93;1.23;;;;;;;5.45;100.00;147555.25;4995607;28;20236;-54
2023/12/27 04:50:16;;;;;;;2.60;1.10;;;;;;;5.40;100.00;147542.84;5007056;28;20474;-54
2023/12/27 04:52:43;;;;;;;2.40;1.13;;;;;;;5.32;100.00;147522.97;4988315;28;20240;-52
2023/12/27 04:55:10;;;;;;;2.80;1.20;;;;;;;5.27;100.00;147510.63;5007459;28;20323;-54
2023/12/27 04:57:37;;;;;;;2.40;1.30;;;;;;;5.25;100.00;147506.88;5004565;28;20727;-52
2023/12/27 05:00:07;;;;;;;3.50;1.60;;;;;;;5.30;100.00;147519.28;5006089;28;20234;-51
2023/12/27 05:02:34;;;;;;;6.10;2.23;;;;;;;5.35;100.00;147529.19;4981340;28;20838;-54
2023/12/27 05:05:01;;;;;;;6.43;1.87;;;;;;;5.40;100.00;147541.63;4982292;28;20220;-54
2023/12/27 05:07:27;;;;;;;5.03;1.87;;;;;;;5.43;100.00;147549.06;4986794;28;20224;-53
2023/12/27 05:09:55;;;;;;;2.90;2.20;;;;;;;5.48;100.00;147561.47;5007631;28;20234;-52
2023/12/27 05:12:22;;;;;;;7.33;2.10;;;;;;;5.46;100.00;147556.50;5006952;28;20249;-53
2023/12/27 05:14:49;;;;;;;8.20;2.90;;;;;;;5.50;100.00;147565.19;5004850;28;20240;-51
2023/12/27 05:17:17;;;;;;;3.93;2.00;;;;;;;5.49;100.00;147563.97;5007165;28;20323;-53
2023/12/27 05:19:43;;;;;;;5.37;2.40;;;;;;;5.45;100.00;147555.25;5004511;28;20244;-53
2023/12/27 05:22:10;;;;;;;7.93;2.47;;;;;;;5.43;100.00;147550.28;5006604;28;20240;-52
2023/12/27 05:24:36;;;;;;;4.03;2.47;;;;;;;5.41;100.00;147544.09;5004121;28;20220;-54
2023/12/27 05:27:03;;;;;;;5.70;2.17;;;;;;;5.40;100.00;147541.63;5007128;28;20232;-52
2023/12/27 05:29:33;;;;;;;4.13;2.50;;;;;;;5.37;100.00;147534.16;5004212;28;20223;-54
2023/12/27 05:32:00;;;;;;;4.50;2.30;;;;;;;5.30;100.00;147519.28;5006768;28;20639;-54
2023/12/27 05:34:28;;;;;;;9.50;2.37;;;;;;;5.29;100.00;147516.78;5004214;28;20216;-51
2023/12/27 05:36:54;;;;;;;7.03;2.30;;;;;;;5.17;100.00;147488.28;5005595;28;20228;-52
2023/12/27 05:39:21;;;;;;;3.80;2.23;;;;;;;5.17;100.00;147488.28;5006678;28;20588;-52
2023/12/27 05:41:47;;;;;;;6.27;2.57;;;;;;;5.21;100.00;147495.72;5004195;28;20259;-53
2023/12/27 05:44:14;;;;;;;5.27;2.10;;;;;;;5.22;100.00;147498.22;5006713;28;20232;-52
2023/12/27 05:46:40;;;;;;;8.13;2.57;;;;;;;5.24;100.00;147503.16;5004191;28;20227;-52
2023/12/27 05:49:06;;;;;;;7.37;3.00;;;;;;;5.25;100.00;147505.66;5006649;28;20473;-54
2023/12/27 05:51:34;;;;;;;4.60;2.43;;;;;;;5.24;100.00;147504.38;5003861;28;20221;-51
2023/12/27 05:54:02;;;;;;;3.90;1.90;;;;;;;5.27;100.00;147511.84;5006666;28;20580;-54
2023/12/27 05:56:29;;;;;;;5.07;2.00;;;;;;;5.29;100.00;147516.78;5003524;28;20227;-52
2023/12/27 05:58:55;;;;;;;7.30;2.70;;;;;;;5.32;100.00;147522.97;4988511;28;20692;-52
2023/12/27 06:01:22;;;;;;;5.87;2.57;;;;;;;5.29;100.00;147515.56;5005466;28;20361;-52
2023/12/27 06:03:49;;;;;;;7.83;2.73;;;;;;;5.25;100.00;147505.66;5004094;28;20233;-52
2023/12/27 06:06:15;;;;;;;14.90;3.13;;;;;;;5.22;100.00;147498.22;5005039;28;20580;-52
2023/12/27 06:08:43;;;;;;;8.03;2.57;;;;;;;5.23;100.00;147501.91;5000709;28;20227;-52
2023/12/27 06:11:12;;;;;;;7.30;2.17;;;;;;;5.21;100.00;147496.94;5005815;28;20588;-52
2023/12/27 06:13:39;;;;;;;3.93;1.97;;;;;;;5.19;100.00;147491.97;5002534;28;20627;-52
2023/12/27 06:16:06;;;;;;;4.63;1.80;;;;;;;5.20;100.00;147493.25;5005147;28;20981;-54
2023/12/27 06:18:34;;;;;;;4.87;1.93;;;;;;;5.21;100.00;147496.94;5003431;28;20700;-52
2023/12/27 06:21:01;;;;;;;3.30;1.57;;;;;;;5.24;100.00;147503.16;5005655;28;20312;-52
2023/12/27 06:23:28;;;;;;;3.33;1.73;;;;;;;5.27;100.00;147511.84;5002909;28;20240;-52
2023/12/27 06:25:56;;;;;;;4.43;1.77;;;;;;;5.35;100.00;147529.19;5006297;28;21239;-51
2023/12/27 06:28:23;;;;;;;8.77;2.20;;;;;;;5.38;100.00;147537.88;5003598;28;20223;-53
2023/12/27 06:30:49;;;;;;;3.97;1.63;;;;;;;5.44;100.00;147552.75;5005726;28;20236;-52
2023/12/27 06:33:16;;;;;;;5.40;2.03;;;;;;;5.52;100.00;147571.41;5004854;28;20212;-53
2023/12/27 06:35:43;;;;;;;7.83;2.00;;;;;;;5.57;100.00;147582.56;5002842;28;20247;-53
2023/12/27 06:38:09;;;;;;;4.17;1.77;;;;;;;5.64;100.00;147599.94;4992191;28;20240;-53
2023/12/27 06:40:36;;;;;;;6.47;1.80;;;;;;;5.64;100.00;147598.72;5003213;28;20740;-53
2023/12/27 06:43:04;;;;;;;4.27;1.80;;;;;;;5.65;100.00;147601.19;5005360;28;20232;-52
2023/12/27 06:45:30;;;;;;;4.30;2.27;;;;;;;5.65;100.00;147602.41;4999899;28;20212;-52
2023/12/27 06:47:57;;;;;;;5.80;1.80;;;;;;;5.65;100.00;147601.19;5005675;28;20239;-54
2023/12/27 06:50:23;;;;;;;6.87;1.77;;;;;;;5.60;100.00;147591.28;5001949;28;20217;-53
2023/12/27 06:52:50;;;;;;;6.10;1.60;;;;;;;5.58;100.00;147586.31;5005003;28;20224;-53
2023/12/27 06:55:17;;;;;;;3.03;2.10;;;;;;;5.50;100.00;147566.44;5005523;28;20627;-53
2023/12/27 06:57:44;;;;;;;3.60;1.60;;;;;;;5.43;100.00;147549.06;5002354;28;20267;-53
2023/12/27 07:00:13;;;;;;;2.47;1.40;;;;;;;5.32;100.00;147522.97;5003871;28;20707;-51
2023/12/27 07:02:40;;;;;;;3.90;1.85;;;;;;;5.30;100.00;147518.06;4998631;28;21201;-52
2023/12/27 07:05:07;;;;;;;3.07;1.57;;;;;;;5.29;100.00;147515.56;5004505;28;20266;-51
2023/12/27 07:07:34;;;;;;;7.13;1.80;;;;;;;5.16;100.00;147485.78;5002330;28;20255;-52
2023/12/27 07:10:01;;;;;;;5.00;1.50;;;;;;;5.10;100.00;147470.91;5004902;28;20310;-52
2023/12/27 07:12:28;;;;;;;3.73;1.40;;;;;;;5.04;100.00;147456.00;5001296;28;20612;-52
2023/12/27 07:14:55;;;;;;;3.00;1.57;;;;;;;5.06;100.00;147460.97;5004774;28;20216;-52
2023/12/27 07:17:23;;;;;;;2.67;1.50;;;;;;;5.07;100.00;147463.47;5004271;28;20263;-52
2023/12/27 07:19:50;;;;;;;2.97;1.40;;;;;;;5.02;100.00;147451.06;5002101;28;20228;-53
2023/12/27 07:22:18;;;;;;;2.27;1.37;;;;;;;4.95;100.00;147434.91;5003882;28;20247;-51
2023/12/27 07:24:44;;;;;;;2.10;1.30;;;;;;;4.89;100.00;147420.00;5002286;28;20232;-51
2023/12/27 07:27:11;;;;;;;3.27;1.57;;;;;;;4.83;100.00;147406.38;5003934;28;20703;-51
2023/12/27 07:29:38;;;;;;;6.27;1.83;;;;;;;4.80;100.00;147397.69;5000718;28;20703;-51
2023/12/27 07:32:05;;;;;;;3.63;2.43;;;;;;;4.79;100.00;147396.47;5004311;28;20225;-51
2023/12/27 07:34:36;;;;;;;5.53;1.93;;;;;;;4.76;100.00;147389.00;5001703;28;20320;-52
2023/12/27 07:37:03;;;;;;;3.80;1.57;;;;;;;4.76;100.00;147387.78;5003749;28;20704;-51
2023/12/27 07:39:33;;;;;;;5.33;2.30;;;;;;;4.74;100.00;147384.06;5000369;28;20224;-52
2023/12/27 07:42:00;;;;;;;3.93;1.20;;;;;;;4.72;100.00;147380.34;5004568;28;20306;-51
2023/12/27 07:44:29;;;;;;;3.63;2.10;;;;;;;4.67;100.00;147366.69;4986874;28;20335;-51
2023/12/27 07:46:56;;;;;;;3.97;1.20;;;;;;;4.65;100.00;147362.97;5004662;28;20716;-51
2023/12/27 07:49:24;;;;;;;2.83;1.30;;;;;;;4.71;100.00;147377.88;5004386;28;20252;-51
2023/12/27 07:51:52;;;;;;;4.73;1.17;;;;;;;4.72;100.00;147379.09;5001640;28;20244;-51
2023/12/27 07:54:19;;;;;;;2.83;1.33;;;;;;;4.76;100.00;147387.78;5004256;28;20699;-51
2023/12/27 07:56:45;;;;;;;3.77;1.47;;;;;;;4.77;100.00;147391.50;5001664;28;20228;-51
2023/12/27 07:59:12;;;;;;;5.57;2.00;;;;;;;4.80;100.00;147398.94;5003130;28;20224;-51
2023/12/27 08:01:38;;;;;;;4.57;1.40;;;;;;;4.84;100.00;147408.88;5001564;28;20315;-53
2023/12/27 08:04:05;;;;;;;5.83;1.37;;;;;;;4.87;100.00;147415.03;5003441;28;20216;-53
2023/12/27 08:06:32;;;;;;;4.20;1.30;;;;;;;4.85;100.00;147410.06;5001898;28;20223;-51
2023/12/27 08:09:00;;;;;;;3.43;1.27;;;;;;;4.90;100.00;147421.28;5004516;28;20239;-54
2023/12/27 08:11:26;;;;;;;4.60;1.33;;;;;;;4.95;100.00;147434.91;5001821;28;20282;-51
2023/12/27 08:13:53;;;;;;;5.40;1.60;;;;;;;5.00;100.00;147446.09;5002616;28;20232;-52
2023/12/27 08:16:19;;;;;;;4.27;1.33;;;;;;;5.05;100.00;147458.50;5004539;28;20230;-52
2023/12/27 08:18:46;;;;;;;5.07;1.80;;;;;;;5.12;100.00;147474.59;5001840;28;20228;-52
2023/12/27 08:21:12;;;;;;;3.83;1.70;;;;;;;5.17;100.00;147487.00;5002711;28;20231;-50
2023/12/27 08:23:39;;;;;;;2.87;1.63;;;;;;;5.27;100.00;147511.84;5001310;28;20675;-51
2023/12/27 08:26:08;;;;;;;3.23;1.70;;;;;;;5.32;100.00;147524.25;4988738;28;20228;-52
2023/12/27 08:28:35;;;;;;;4.20;3.17;;;;;;;5.40;100.00;147541.63;4987184;28;20219;-54
2023/12/27 08:31:04;;;;;;;5.07;2.17;;;;;;;5.35;100.00;147530.44;5006063;28;20251;-53
2023/12/27 08:33:30;;;;;;;9.50;5.73;;;;;;;5.44;100.00;147551.53;5005081;28;20231;-51
2023/12/27 08:35:59;;;;;;;7.83;5.67;;;;;;;5.52;100.00;147570.13;5007845;28;20330;-51
2023/12/27 08:38:26;;;;;;;8.50;5.03;;;;;;;5.59;100.00;147588.78;5004620;28;20224;-51
2023/12/27 08:40:53;;;;;;;4.60;3.30;;;;;;;5.70;100.00;147614.84;5007323;28;20231;-51
2023/12/27 08:43:21;;;;;;;3.33;1.73;;;;;;;5.76;100.00;147628.50;5007345;28;20228;-53
2023/12/27 08:45:48;;;;;;;4.10;1.70;;;;;;;5.76;100.00;147628.50;5004914;28;20231;-51
2023/12/27 08:48:14;;;;;;;4.43;2.00;;;;;;;5.79;100.00;147634.69;5007215;28;20232;-51
2023/12/27 08:50:43;;;;;;;9.83;5.10;;;;;;;5.79;100.00;147634.69;5004708;28;20568;-51
2023/12/27 08:53:11;;;;;;;4.13;2.10;;;;;;;5.81;100.00;147639.66;5007227;28;20236;-52
2023/12/27 08:55:38;;;;;;;9.37;3.40;;;;;;;5.80;100.00;147638.44;5004451;28;20230;-52
2023/12/27 08:58:05;;;;;;;4.90;2.80;;;;;;;5.76;100.00;147629.72;5007751;28;20553;-52
2023/12/27 09:00:34;;;;;;;3.47;2.00;;;;;;;5.72;100.00;147619.78;5004530;28;20322;-51
2023/12/27 09:03:01;;;;;;;8.10;4.03;;;;;;;5.67;100.00;147606.16;5007261;28;20795;-51
2023/12/27 09:05:27;;;;;;;7.30;4.07;;;;;;;5.78;100.00;147633.47;4986573;28;20671;-51
2023/12/27 09:07:54;;;;;;;9.00;5.57;;;;;;;5.70;100.00;147613.59;5007534;28;20236;-51
2023/12/27 09:10:21;;;;;;;15.57;7.20;;;;;;;5.75;100.00;147627.25;5007099;28;20711;-52
2023/12/27 09:12:47;;;;;;;10.90;6.63;;;;;;;5.75;100.00;147626.03;5003267;28;20240;-52
2023/12/27 09:15:14;;;;;;;12.70;6.73;;;;;;;5.74;100.00;147623.53;5007163;28;20232;-51
2023/12/27 09:17:42;;;;;;;11.43;5.43;;;;;;;5.77;100.00;147631.00;5004209;28;20216;-54
2023/12/27 09:20:09;;;;;;;11.57;6.00;;;;;;;5.79;100.00;147635.97;5005535;28;20220;-52
2023/12/27 09:22:36;;;;;;;11.13;5.87;;;;;;;5.87;100.00;147654.56;4990901;28;20232;-51
2023/12/27 09:25:03;;;;;;;12.53;6.23;;;;;;;6.07;100.00;147701.78;5005693;28;20267;-52
2023/12/27 09:27:30;;;;;;;10.50;5.77;;;;;;;6.24;100.00;147742.75;5002064;28;20239;-51
2023/12/27 09:29:57;;;;;;;12.03;6.03;;;;;;;6.51;100.00;147808.53;5006793;28;20240;-52
2023/12/27 09:32:24;;;;;;;11.80;6.50;;;;;;;6.66;100.00;147844.59;5003435;28;20696;-51
2023/12/27 09:34:51;;;;;;;10.37;5.40;;;;;;;6.64;100.00;147840.84;5006455;28;20228;-52
2023/12/27 09:37:17;;;;;;;7.93;4.90;;;;;;;6.77;100.00;147871.94;5005564;28;20228;-53
2023/12/27 09:39:45;;;;;;;281.60;67.23;;;;;;;6.88;100.00;147898.00;5004132;28;20578;-51
2023/12/27 09:42:13;;;;;;;208.60;58.70;;;;;;;6.72;100.00;147859.50;5005583;28;20240;-51
2023/12/27 09:44:43;;;;;;;34.90;15.10;;;;;;;6.86;100.00;147893.03;5003627;28;20321;-52
2023/12/27 09:47:13;;;;;;;10.43;5.33;;;;;;;6.86;100.00;147893.03;5005756;28;20230;-51
2023/12/27 09:49:41;;;;;;;9.37;4.60;;;;;;;6.83;100.00;147885.56;5002591;28;20345;-51
2023/12/27 09:52:09;;;;;;;7.20;4.37;;;;;;;6.81;100.00;147879.38;4994565;28;20237;-51
2023/12/27 09:54:36;;;;;;;11.80;6.90;;;;;;;6.81;100.00;147880.59;5001965;28;20287;-51
2023/12/27 09:57:04;;;;;;;8.63;5.03;;;;;;;6.78;100.00;147873.13;5005726;28;20236;-52
2023/12/27 09:59:39;;;;;;;9.43;4.70;;;;;;;6.77;100.00;147870.66;5004044;28;20208;-51
2023/12/27 10:02:12;;;;;;;7.97;4.53;;;;;;;6.75;100.00;147865.69;5004671;28;20260;-51
2023/12/27 10:04:48;;;;;;;10.03;4.20;;;;;;;6.78;100.00;147873.13;5002397;28;20308;-51
2023/12/27 10:07:18;;;;;;;7.97;4.53;;;;;;;6.79;100.00;147875.63;5004939;28;20224;-53
2023/12/27 10:09:46;;;;;;;8.07;5.77;;;;;;;6.99;100.00;147922.84;5003770;28;20683;-53
2023/12/27 10:12:14;;;;;;;15.47;7.90;;;;;;;6.99;100.00;147922.84;5005091;28;20236;-52
2023/12/27 10:14:42;;;;;;;12.17;6.67;;;;;;;7.07;100.00;147943.94;5003040;28;20232;-51
2023/12/27 10:17:08;;;;;;;16.07;7.67;;;;;;;7.06;100.00;147940.25;4983432;28;20220;-53
2023/12/27 10:19:38;;;;;;;11.27;6.67;;;;;;;7.11;100.00;147952.66;5002718;28;20228;-53
2023/12/27 10:22:05;;;;;;;15.20;7.67;;;;;;;7.16;100.00;147965.09;5005377;28;20247;-52
2023/12/27 10:24:37;;;;;;;14.20;7.20;;;;;;;7.13;100.00;147957.63;5003241;28;20295;-51
2023/12/27 10:27:04;;;;;;;14.93;6.43;;;;;;;6.99;100.00;147924.06;5006193;28;20270;-51
2023/12/27 10:29:36;;;;;;;16.53;6.33;;;;;;;6.88;100.00;147896.78;5003543;28;20224;-52
2023/12/27 10:32:04;;;;;;;13.00;6.43;;;;;;;6.85;100.00;147889.31;5005690;28;20229;-54
2023/12/27 10:34:36;;;;;;;8.87;6.40;;;;;;;6.97;100.00;147917.88;5002537;28;20702;-53
2023/12/27 10:37:07;;;;;;;11.13;6.50;;;;;;;7.06;100.00;147941.47;5005975;28;20236;-52
2023/12/27 10:39:34;;;;;;;15.23;7.90;;;;;;;7.20;100.00;147975.03;4985729;28;20223;-52
2023/12/27 10:42:02;;;;;;;9.73;6.00;;;;;;;7.18;100.00;147968.78;5005637;28;20232;-51
2023/12/27 10:44:28;;;;;;;10.80;5.60;;;;;;;7.36;100.00;148013.53;5002726;28;20231;-51
2023/12/27 10:46:55;;;;;;;11.53;6.07;;;;;;;7.35;100.00;148011.06;4988383;28;20239;-52
2023/12/27 10:49:25;;;;;;;11.57;5.60;;;;;;;7.44;100.00;148030.94;5005553;28;20727;-53
2023/12/27 10:51:55;;;;;;;10.77;5.53;;;;;;;7.53;100.00;148053.31;5001281;28;20708;-54
2023/12/27 10:54:23;;;;;;;10.40;5.40;;;;;;;7.79;100.00;148115.47;5005274;28;20236;-51
2023/12/27 10:56:54;;;;;;;9.47;5.93;;;;;;;7.96;100.00;148157.69;5003362;28;20248;-51
2023/12/27 10:59:22;;;;;;;10.77;5.70;;;;;;;8.11;100.00;148192.50;5005396;28;20239;-52
2023/12/27 11:01:50;;;;;;;9.43;5.40;;;;;;;8.22;100.00;148219.88;4981152;28;20230;-53
2023/12/27 11:04:18;;;;;;;10.57;5.40;;;;;;;8.22;100.00;148218.66;5005092;28;20716;-53
2023/12/27 11:06:48;;;;;;;12.90;5.40;;;;;;;8.18;100.00;148209.91;5001626;28;20233;-52
2023/12/27 11:09:16;;;;;;;14.20;5.10;;;;;;;8.13;99.86;148197.47;5005612;28;20623;-51
2023/12/27 11:11:44;;;;;;;9.33;5.67;;;;;;;8.14;100.00;148199.97;5002358;28;20248;-52
2023/12/27 11:14:11;;;;;;;12.13;5.63;;;;;;;8.21;99.96;148216.16;5005349;28;20264;-51
2023/12/27 11:16:41;;;;;;;10.13;5.57;;;;;;;8.26;98.99;148228.59;5002146;28;20293;-52
2023/12/27 11:19:08;;;;;;;10.17;5.90;;;;;;;8.17;99.47;148206.22;5004792;28;20233;-52
2023/12/27 11:21:36;;;;;;;9.77;5.50;;;;;;;8.17;99.69;148207.44;5002722;28;20217;-52
2023/12/27 11:24:03;;;;;;;11.25;6.00;;;;;;;8.22;100.00;148219.88;5004400;28;20435;-52
2023/12/27 11:26:33;;;;;;;9.27;5.87;;;;;;;8.13;100.00;148198.75;5002919;28;20228;-52